sensor_id;sensor_type;location;lat;lon;timestamp;pressure;altitude;pressure_sealevel;temperature;humidity
49216;BME280;45943;53.148;8.204;2023-02-15T00:00:28;103023.09;;;7.38;100.00
49216;BME280;45943;53.148;8.204;2023-02-15T00:02:54;103029.19;;;7.42;100.00
49216;BME280;45943;53.148;8.204;2023-02-15T00:05:20;103030.84;;;7.46;100.00
49216;BME280;45943;53.148;8.204;2023-02-15T00:07:46;103034.44;;;7.45;100.00
49216;BME280;45943;53.148;8.204;2023-02-15T00:10:12;103038.25;;;7.38;100.00
49216;BME280;45943;53.148;8.204;2023-02-15T00:12:39;103035.94;;;7.26;100.00
49216;BME280;45943;53.148;8.204;2023-02-15T00:15:05;103045.09;;;7.17;100.00
49216;BME280;45943;53.148;8.204;2023-02-15T00:17:31;103045.09;;;7.18;100.00
49216;BME280;45943;53.148;8.204;2023-02-15T00:19:57;103029.19;;;7.14;100.00
49216;BME280;45943;53.148;8.204;2023-02-15T00:22:23;103025.53;;;7.16;100.00
49216;BME280;45943;53.148;8.204;2023-02-15T00:24:50;103026.41;;;7.18;100.00
49216;BME280;45943;53.148;8.204;2023-02-15T00:27:16;103012.13;;;7.19;100.00
49216;BME280;45943;53.148;8.204;2023-02-15T00:29:42;103021.25;;;7.12;100.00
49216;BME280;45943;53.148;8.204;2023-02-15T00:32:08;103019.50;;;7.11;100.00
49216;BME280;45943;53.148;8.204;2023-02-15T00:34:34;103016.81;;;7.11;100.00
49216;BME280;45943;53.148;8.204;2023-02-15T00:37:00;103024.09;;;7.06;100.00
49216;BME280;45943;53.148;8.204;2023-02-15T00:39:26;103025.25;;;6.98;100.00
49216;BME280;45943;53.148;8.204;2023-02-15T00:41:52;103027.03;;;6.97;100.00
49216;BME280;45943;53.148;8.204;2023-02-15T00:44:18;103020.81;;;6.98;100.00
49216;BME280;45943;53.148;8.204;2023-02-15T00:46:44;103016.53;;;6.93;100.00
49216;BME280;45943;53.148;8.204;2023-02-15T00:49:10;103018.50;;;6.86;100.00
49216;BME280;45943;53.148;8.204;2023-02-15T00:51:36;103020.34;;;6.84;100.00
49216;BME280;45943;53.148;8.204;2023-02-15T00:54:03;103018.72;;;6.78;100.00
49216;BME280;45943;53.148;8.204;2023-02-15T00:56:29;103013.63;;;6.71;100.00
49216;BME280;45943;53.148;8.204;2023-02-15T00:58:55;103015.75;;;6.59;100.00
49216;BME280;45943;53.148;8.204;2023-02-15T01:01:21;103022.88;;;6.59;100.00
49216;BME280;45943;53.148;8.204;2023-02-15T01:03:47;103012.94;;;6.64;100.00
49216;BME280;45943;53.148;8.204;2023-02-15T01:06:14;102998.81;;;6.60;100.00
49216;BME280;45943;53.148;8.204;2023-02-15T01:08:41;103006.16;;;6.52;100.00
49216;BME280;45943;53.148;8.204;2023-02-15T01:11:08;103000.03;;;6.49;100.00
49216;BME280;45943;53.148;8.204;2023-02-15T01:13:36;103002.78;;;6.46;100.00
49216;BME280;45943;53.148;8.204;2023-02-15T01:16:03;102995.72;;;6.45;100.00
49216;BME280;45943;53.148;8.204;2023-02-15T01:18:29;103001.03;;;6.45;100.00
49216;BME280;45943;53.148;8.204;2023-02-15T01:20:55;102993.00;;;6.46;100.00
49216;BME280;45943;53.148;8.204;2023-02-15T01:23:21;102985.91;;;6.45;100.00
49216;BME280;45943;53.148;8.204;2023-02-15T01:25:47;102988.81;;;6.38;100.00
49216;BME280;45943;53.148;8.204;2023-02-15T01:28:13;102982.63;;;6.04;100.00
49216;BME280;45943;53.148;8.204;2023-02-15T01:30:39;102985.25;;;6.06;100.00
49216;BME280;45943;53.148;8.204;2023-02-15T01:33:05;102981.81;;;6.02;100.00
49216;BME280;45943;53.148;8.204;2023-02-15T01:35:31;102985.16;;;6.11;100.00
49216;BME280;45943;53.148;8.204;2023-02-15T01:37:58;102984.13;;;6.15;100.00
49216;BME280;45943;53.148;8.204;2023-02-15T01:40:24;102979.56;;;6.18;100.00
49216;BME280;45943;53.148;8.204;2023-02-15T01:42:54;102969.06;;;6.45;100.00
49216;BME280;45943;53.148;8.204;2023-02-15T01:45:23;102972.47;;;6.50;100.00
49216;BME280;45943;53.148;8.204;2023-02-15T01:50:39;102973.28;;;6.52;100.00
49216;BME280;45943;53.148;8.204;2023-02-15T01:55:53;102972.97;;;6.63;100.00
49216;BME280;45943;53.148;8.204;2023-02-15T01:58:22;102970.41;;;6.59;100.00
49216;BME280;45943;53.148;8.204;2023-02-15T02:00:52;102982.88;;;6.57;100.00
49216;BME280;45943;53.148;8.204;2023-02-15T02:03:20;102972.22;;;6.59;100.00
49216;BME280;45943;53.148;8.204;2023-02-15T02:06:11;102974.81;;;6.60;100.00
49216;BME280;45943;53.148;8.204;2023-02-15T02:08:38;102962.47;;;6.56;100.00
49216;BME280;45943;53.148;8.204;2023-02-15T02:11:09;102961.59;;;6.56;100.00
49216;BME280;45943;53.148;8.204;2023-02-15T02:13:36;102950.28;;;6.49;100.00
49216;BME280;45943;53.148;8.204;2023-02-15T02:16:14;102949.56;;;6.43;100.00
49216;BME280;45943;53.148;8.204;2023-02-15T02:24:33;102947.28;;;6.29;100.00
49216;BME280;45943;53.148;8.204;2023-02-15T02:30:04;102941.13;;;6.27;100.00
49216;BME280;45943;53.148;8.204;2023-02-15T02:35:20;102933.69;;;6.38;100.00
49216;BME280;45943;53.148;8.204;2023-02-15T02:38:15;102937.38;;;6.34;100.00
49216;BME280;45943;53.148;8.204;2023-02-15T02:44:31;102926.22;;;6.21;100.00
49216;BME280;45943;53.148;8.204;2023-02-15T02:46:49;102925.34;;;6.19;100.00
49216;BME280;45943;53.148;8.204;2023-02-15T02:49:35;102924.47;;;6.20;100.00
49216;BME280;45943;53.148;8.204;2023-02-15T02:52:04;102918.44;;;6.14;100.00
49216;BME280;45943;53.148;8.204;2023-02-15T02:54:33;102919.47;;;6.08;100.00
49216;BME280;45943;53.148;8.204;2023-02-15T02:57:02;102913.94;;;6.16;100.00
49216;BME280;45943;53.148;8.204;2023-02-15T02:59:33;102912.97;;;6.18;100.00
49216;BME280;45943;53.148;8.204;2023-02-15T03:02:08;102912.19;;;6.15;100.00
49216;BME280;45943;53.148;8.204;2023-02-15T03:04:40;102915.88;;;6.11;100.00
49216;BME280;45943;53.148;8.204;2023-02-15T03:07:11;102921.19;;;6.11;100.00
49216;BME280;45943;53.148;8.204;2023-02-15T03:09:49;102921.44;;;6.01;100.00
49216;BME280;45943;53.148;8.204;2023-02-15T03:12:21;102917.03;;;6.00;100.00
49216;BME280;45943;53.148;8.204;2023-02-15T03:17:37;102898.34;;;6.02;100.00
49216;BME280;45943;53.148;8.204;2023-02-15T03:20:14;102905.47;;;6.01;100.00
49216;BME280;45943;53.148;8.204;2023-02-15T03:22:46;102901.69;;;6.09;100.00
49216;BME280;45943;53.148;8.204;2023-02-15T03:25:17;102893.91;;;6.02;100.00
49216;BME280;45943;53.148;8.204;2023-02-15T03:27:49;102902.00;;;5.98;100.00
49216;BME280;45943;53.148;8.204;2023-02-15T03:30:20;102892.97;;;6.03;100.00
49216;BME280;45943;53.148;8.204;2023-02-15T03:32:48;102896.91;;;5.90;100.00
49216;BME280;45943;53.148;8.204;2023-02-15T03:35:17;102901.59;;;5.79;100.00
49216;BME280;45943;53.148;8.204;2023-02-15T03:37:49;102894.69;;;5.73;100.00
49216;BME280;45943;53.148;8.204;2023-02-15T03:40:23;102889.16;;;5.80;100.00
49216;BME280;45943;53.148;8.204;2023-02-15T03:43:23;102902.31;;;5.86;100.00
49216;BME280;45943;53.148;8.204;2023-02-15T03:46:17;102890.84;;;5.84;100.00
49216;BME280;45943;53.148;8.204;2023-02-15T03:48:46;102902.16;;;5.93;100.00
49216;BME280;45943;53.148;8.204;2023-02-15T03:51:18;102901.31;;;5.90;100.00
49216;BME280;45943;53.148;8.204;2023-02-15T03:57:10;102890.94;;;5.81;100.00
49216;BME280;45943;53.148;8.204;2023-02-15T04:00:00;102893.88;;;5.70;100.00
49216;BME280;45943;53.148;8.204;2023-02-15T04:02:55;102900.19;;;5.66;100.00
49216;BME280;45943;53.148;8.204;2023-02-15T04:05:43;102903.63;;;5.71;100.00
49216;BME280;45943;53.148;8.204;2023-02-15T04:08:10;102901.16;;;5.63;100.00
49216;BME280;45943;53.148;8.204;2023-02-15T04:10:36;102891.38;;;5.64;100.00
49216;BME280;45943;53.148;8.204;2023-02-15T04:13:18;102889.47;;;5.69;100.00
49216;BME280;45943;53.148;8.204;2023-02-15T04:15:45;102891.25;;;5.68;100.00
49216;BME280;45943;53.148;8.204;2023-02-15T04:18:33;102885.25;;;5.62;100.00
49216;BME280;45943;53.148;8.204;2023-02-15T04:21:22;102884.63;;;5.52;100.00
49216;BME280;45943;53.148;8.204;2023-02-15T04:24:08;102881.00;;;5.55;100.00
49216;BME280;45943;53.148;8.204;2023-02-15T04:26:54;102887.09;;;5.58;100.00
49216;BME280;45943;53.148;8.204;2023-02-15T04:29:20;102893.44;;;5.54;100.00
49216;BME280;45943;53.148;8.204;2023-02-15T04:31:47;102884.38;;;5.61;100.00
49216;BME280;45943;53.148;8.204;2023-02-15T04:34:14;102887.81;;;5.65;100.00
49216;BME280;45943;53.148;8.204;2023-02-15T04:36:40;102872.84;;;5.61;100.00
49216;BME280;45943;53.148;8.204;2023-02-15T04:39:07;102873.97;;;5.52;100.00
49216;BME280;45943;53.148;8.204;2023-02-15T04:41:33;102867.69;;;5.55;100.00
49216;BME280;45943;53.148;8.204;2023-02-15T04:44:00;102865.03;;;5.55;100.00
49216;BME280;45943;53.148;8.204;2023-02-15T04:46:27;102848.53;;;5.40;100.00
49216;BME280;45943;53.148;8.204;2023-02-15T04:48:54;102854.13;;;5.31;100.00
49216;BME280;45943;53.148;8.204;2023-02-15T04:51:20;102857.63;;;5.33;100.00
49216;BME280;45943;53.148;8.204;2023-02-15T04:53:46;102853.91;;;5.39;100.00
49216;BME280;45943;53.148;8.204;2023-02-15T04:56:12;102857.31;;;5.44;100.00
49216;BME280;45943;53.148;8.204;2023-02-15T04:58:38;102851.97;;;5.45;100.00
49216;BME280;45943;53.148;8.204;2023-02-15T05:01:07;102858.03;;;5.51;100.00
49216;BME280;45943;53.148;8.204;2023-02-15T05:03:33;102859.53;;;5.61;100.00
49216;BME280;45943;53.148;8.204;2023-02-15T05:05:59;102853.16;;;5.66;100.00
49216;BME280;45943;53.148;8.204;2023-02-15T05:08:25;102851.31;;;5.68;100.00
49216;BME280;45943;53.148;8.204;2023-02-15T05:10:52;102849.75;;;5.61;100.00
49216;BME280;45943;53.148;8.204;2023-02-15T05:13:18;102854.22;;;5.59;100.00
49216;BME280;45943;53.148;8.204;2023-02-15T05:15:47;102850.94;;;5.51;100.00
49216;BME280;45943;53.148;8.204;2023-02-15T05:18:15;102855.44;;;5.47;100.00
49216;BME280;45943;53.148;8.204;2023-02-15T05:20:41;102847.41;;;5.51;100.00
49216;BME280;45943;53.148;8.204;2023-02-15T05:23:07;102844.72;;;5.51;100.00
49216;BME280;45943;53.148;8.204;2023-02-15T05:25:33;102850.69;;;5.59;100.00
49216;BME280;45943;53.148;8.204;2023-02-15T05:28:18;102840.91;;;5.61;100.00
49216;BME280;45943;53.148;8.204;2023-02-15T05:30:56;102835.16;;;5.43;100.00
49216;BME280;45943;53.148;8.204;2023-02-15T05:33:25;102833.63;;;5.35;100.00
49216;BME280;45943;53.148;8.204;2023-02-15T05:35:51;102836.13;;;5.39;100.00
49216;BME280;45943;53.148;8.204;2023-02-15T05:38:17;102835.84;;;5.50;100.00
49216;BME280;45943;53.148;8.204;2023-02-15T05:40:43;102825.97;;;5.55;100.00
49216;BME280;45943;53.148;8.204;2023-02-15T05:43:09;102826.78;;;5.57;100.00
49216;BME280;45943;53.148;8.204;2023-02-15T05:45:35;102824.25;;;5.53;100.00
49216;BME280;45943;53.148;8.204;2023-02-15T05:48:00;102820.78;;;5.51;100.00
49216;BME280;45943;53.148;8.204;2023-02-15T05:50:27;102826.34;;;5.41;100.00
49216;BME280;45943;53.148;8.204;2023-02-15T05:52:53;102825.59;;;5.36;100.00
49216;BME280;45943;53.148;8.204;2023-02-15T05:55:19;102828.91;;;5.44;100.00
49216;BME280;45943;53.148;8.204;2023-02-15T05:57:45;102820.94;;;5.44;100.00
49216;BME280;45943;53.148;8.204;2023-02-15T06:00:11;102814.13;;;5.34;100.00
49216;BME280;45943;53.148;8.204;2023-02-15T06:02:38;102807.25;;;5.26;100.00
49216;BME280;45943;53.148;8.204;2023-02-15T06:05:04;102809.91;;;5.26;100.00
49216;BME280;45943;53.148;8.204;2023-02-15T06:07:31;102810.63;;;5.32;100.00
49216;BME280;45943;53.148;8.204;2023-02-15T06:09:57;102807.88;;;5.35;100.00
49216;BME280;45943;53.148;8.204;2023-02-15T06:12:23;102805.16;;;5.37;100.00
49216;BME280;45943;53.148;8.204;2023-02-15T06:14:49;102807.97;;;5.31;100.00
49216;BME280;45943;53.148;8.204;2023-02-15T06:17:15;102809.88;;;5.27;100.00
49216;BME280;45943;53.148;8.204;2023-02-15T06:19:42;102809.88;;;5.27;100.00
49216;BME280;45943;53.148;8.204;2023-02-15T06:22:08;102807.97;;;5.31;100.00
49216;BME280;45943;53.148;8.204;2023-02-15T06:24:34;102804.59;;;5.26;100.00
49216;BME280;45943;53.148;8.204;2023-02-15T06:27:00;102801.25;;;5.17;100.00
49216;BME280;45943;53.148;8.204;2023-02-15T06:29:26;102803.19;;;5.12;100.00
49216;BME280;45943;53.148;8.204;2023-02-15T06:31:52;102804.13;;;5.10;100.00
49216;BME280;45943;53.148;8.204;2023-02-15T06:34:18;102812.81;;;5.16;100.00
49216;BME280;45943;53.148;8.204;2023-02-15T06:36:44;102798.34;;;5.27;100.00
49216;BME280;45943;53.148;8.204;2023-02-15T06:39:10;102808.88;;;5.31;100.00
49216;BME280;45943;53.148;8.204;2023-02-15T06:41:36;102807.78;;;5.38;100.00
49216;BME280;45943;53.148;8.204;2023-02-15T06:44:02;102806.84;;;5.41;100.00
49216;BME280;45943;53.148;8.204;2023-02-15T06:46:28;102793.75;;;5.33;100.00
49216;BME280;45943;53.148;8.204;2023-02-15T06:48:54;102801.84;;;5.29;100.00
49216;BME280;45943;53.148;8.204;2023-02-15T06:51:20;102798.41;;;5.25;100.00
49216;BME280;45943;53.148;8.204;2023-02-15T06:53:46;102794.03;;;5.23;100.00
49216;BME280;45943;53.148;8.204;2023-02-15T06:56:12;102793.19;;;5.21;100.00
49216;BME280;45943;53.148;8.204;2023-02-15T06:58:39;102792.31;;;5.22;100.00
49216;BME280;45943;53.148;8.204;2023-02-15T07:01:06;102798.59;;;5.17;100.00
49216;BME280;45943;53.148;8.204;2023-02-15T07:03:32;102794.09;;;5.21;100.00
49216;BME280;45943;53.148;8.204;2023-02-15T07:05:59;102789.59;;;5.23;100.00
49216;BME280;45943;53.148;8.204;2023-02-15T07:08:27;102794.97;;;5.22;100.00
49216;BME280;45943;53.148;8.204;2023-02-15T07:10:53;102792.06;;;5.29;100.00
49216;BME280;45943;53.148;8.204;2023-02-15T07:13:41;102792.31;;;5.20;100.00
49216;BME280;45943;53.148;8.204;2023-02-15T07:16:08;102795.03;;;5.18;100.00
49216;BME280;45943;53.148;8.204;2023-02-15T07:18:35;102788.91;;;5.15;100.00
49216;BME280;45943;53.148;8.204;2023-02-15T07:21:01;102791.63;;;5.13;100.00
49216;BME280;45943;53.148;8.204;2023-02-15T07:23:27;102793.31;;;5.16;100.00
49216;BME280;45943;53.148;8.204;2023-02-15T07:25:57;102790.75;;;5.13;100.00
49216;BME280;45943;53.148;8.204;2023-02-15T07:28:24;102788.81;;;5.18;100.00
49216;BME280;45943;53.148;8.204;2023-02-15T07:30:50;102790.66;;;5.16;100.00
49216;BME280;45943;53.148;8.204;2023-02-15T07:33:16;102788.63;;;5.26;100.00
49216;BME280;45943;53.148;8.204;2023-02-15T07:35:53;102789.50;;;5.26;100.00
49216;BME280;45943;53.148;8.204;2023-02-15T07:38:21;102786.88;;;5.25;100.00
49216;BME280;45943;53.148;8.204;2023-02-15T07:40:47;102794.88;;;5.25;100.00
49216;BME280;45943;53.148;8.204;2023-02-15T07:43:13;102788.47;;;5.32;100.00
49216;BME280;45943;53.148;8.204;2023-02-15T07:45:40;102800.91;;;5.31;100.00
49216;BME280;45943;53.148;8.204;2023-02-15T07:48:06;102785.63;;;5.38;100.00
49216;BME280;45943;53.148;8.204;2023-02-15T07:50:33;102795.66;;;5.59;100.00
49216;BME280;45943;53.148;8.204;2023-02-15T07:53:02;102785.63;;;5.69;100.00
49216;BME280;45943;53.148;8.204;2023-02-15T07:55:29;102793.94;;;5.88;100.00
49216;BME280;45943;53.148;8.204;2023-02-15T07:57:55;102786.59;;;5.97;100.00
49216;BME280;45943;53.148;8.204;2023-02-15T08:00:22;102788.25;;;6.01;100.00
49216;BME280;45943;53.148;8.204;2023-02-15T08:02:51;102784.75;;;5.99;100.00
49216;BME280;45943;53.148;8.204;2023-02-15T08:05:37;102787.28;;;6.04;100.00
49216;BME280;45943;53.148;8.204;2023-02-15T08:08:04;102781.91;;;6.06;100.00
49216;BME280;45943;53.148;8.204;2023-02-15T08:10:30;102788.00;;;6.09;100.00
49216;BME280;45943;53.148;8.204;2023-02-15T08:13:14;102781.72;;;6.12;100.00
49216;BME280;45943;53.148;8.204;2023-02-15T08:15:47;102782.66;;;6.11;100.00
49216;BME280;45943;53.148;8.204;2023-02-15T08:18:14;102785.03;;;6.20;100.00
49216;BME280;45943;53.148;8.204;2023-02-15T08:20:40;102783.81;;;6.30;100.00
49216;BME280;45943;53.148;8.204;2023-02-15T08:23:06;102777.34;;;6.37;100.00
49216;BME280;45943;53.148;8.204;2023-02-15T08:25:32;102775.22;;;6.48;100.00
49216;BME280;45943;53.148;8.204;2023-02-15T08:27:58;102772.94;;;6.64;100.00
49216;BME280;45943;53.148;8.204;2023-02-15T08:30:23;102776.16;;;6.74;100.00
49216;BME280;45943;53.148;8.204;2023-02-15T08:32:49;102767.91;;;6.81;100.00
49216;BME280;45943;53.148;8.204;2023-02-15T08:35:15;102767.72;;;6.86;100.00
49216;BME280;45943;53.148;8.204;2023-02-15T08:37:41;102769.28;;;6.93;100.00
49216;BME280;45943;53.148;8.204;2023-02-15T08:40:08;102762.03;;;6.97;100.00
49216;BME280;45943;53.148;8.204;2023-02-15T08:42:34;102760.91;;;7.04;100.00
49216;BME280;45943;53.148;8.204;2023-02-15T08:45:00;102750.94;;;7.09;100.00
49216;BME280;45943;53.148;8.204;2023-02-15T08:47:26;102751.53;;;7.17;100.00
49216;BME280;45943;53.148;8.204;2023-02-15T08:49:53;102744.19;;;7.24;100.00
49216;BME280;45943;53.148;8.204;2023-02-15T08:52:21;102752.72;;;7.33;100.00
49216;BME280;45943;53.148;8.204;2023-02-15T08:54:47;102741.78;;;7.41;100.00
49216;BME280;45943;53.148;8.204;2023-02-15T08:57:13;102740.03;;;7.40;100.00
49216;BME280;45943;53.148;8.204;2023-02-15T08:59:39;102729.50;;;7.35;100.00
49216;BME280;45943;53.148;8.204;2023-02-15T09:02:05;102735.72;;;7.36;100.00
49216;BME280;45943;53.148;8.204;2023-02-15T09:04:31;102738.72;;;7.27;100.00
49216;BME280;45943;53.148;8.204;2023-02-15T09:06:57;102730.72;;;7.27;100.00
49216;BME280;45943;53.148;8.204;2023-02-15T09:09:23;102724.09;;;7.37;100.00
49216;BME280;45943;53.148;8.204;2023-02-15T09:11:49;102721.34;;;7.40;100.00
49216;BME280;45943;53.148;8.204;2023-02-15T09:14:17;102710.25;;;7.51;100.00
49216;BME280;45943;53.148;8.204;2023-02-15T09:16:46;102717.63;;;7.67;100.00
49216;BME280;45943;53.148;8.204;2023-02-15T09:19:14;102718.97;;;7.79;100.00
49216;BME280;45943;53.148;8.204;2023-02-15T09:21:41;102711.25;;;7.93;100.00
49216;BME280;45943;53.148;8.204;2023-02-15T09:24:08;102711.19;;;7.95;100.00
49216;BME280;45943;53.148;8.204;2023-02-15T09:26:37;102718.03;;;8.02;100.00
49216;BME280;45943;53.148;8.204;2023-02-15T09:29:08;102706.78;;;7.94;100.00
49216;BME280;45943;53.148;8.204;2023-02-15T09:31:39;102708.06;;;8.07;100.00
49216;BME280;45943;53.148;8.204;2023-02-15T09:34:09;102711.88;;;8.22;100.00
49216;BME280;45943;53.148;8.204;2023-02-15T09:36:37;102711.81;;;8.23;100.00
49216;BME280;45943;53.148;8.204;2023-02-15T09:53:16;102721.31;;;8.74;100.00
49216;BME280;45943;53.148;8.204;2023-02-15T10:07:22;102717.31;;;9.25;100.00
49216;BME280;45943;53.148;8.204;2023-02-15T10:13:15;102710.75;;;9.51;100.00
49216;BME280;45943;53.148;8.204;2023-02-15T10:18:32;102705.19;;;9.74;100.00
49216;BME280;45943;53.148;8.204;2023-02-15T10:21:11;102708.44;;;9.81;100.00
49216;BME280;45943;53.148;8.204;2023-02-15T10:26:46;102704.59;;;9.87;100.00
49216;BME280;45943;53.148;8.204;2023-02-15T10:29:20;102703.66;;;10.06;100.00
49216;BME280;45943;53.148;8.204;2023-02-15T10:32:23;102702.47;;;10.31;100.00
49216;BME280;45943;53.148;8.204;2023-02-15T10:43:31;102682.56;;;11.22;100.00
49216;BME280;45943;53.148;8.204;2023-02-15T10:46:22;102676.47;;;11.51;100.00
49216;BME280;45943;53.148;8.204;2023-02-15T10:51:57;102680.84;;;12.01;100.00
49216;BME280;45943;53.148;8.204;2023-02-15T10:54:48;102675.81;;;11.95;100.00
49216;BME280;45943;53.148;8.204;2023-02-15T10:58:05;102671.72;;;11.88;100.00
49216;BME280;45943;53.148;8.204;2023-02-15T11:06:04;102673.31;;;11.92;100.00
49216;BME280;45943;53.148;8.204;2023-02-15T11:08:34;102665.81;;;11.65;100.00
49216;BME280;45943;53.148;8.204;2023-02-15T11:11:06;102666.81;;;11.80;100.00
49216;BME280;45943;53.148;8.204;2023-02-15T11:13:38;102657.59;;;12.00;100.00
49216;BME280;45943;53.148;8.204;2023-02-15T11:16:11;102665.06;;;12.11;100.00
49216;BME280;45943;53.148;8.204;2023-02-15T11:18:47;102670.47;;;12.41;100.00
49216;BME280;45943;53.148;8.204;2023-02-15T11:23:59;102661.19;;;12.60;100.00
49216;BME280;45943;53.148;8.204;2023-02-15T11:26:29;102651.63;;;12.85;100.00
49216;BME280;45943;53.148;8.204;2023-02-15T11:29:21;102642.22;;;13.06;100.00
49216;BME280;45943;53.148;8.204;2023-02-15T11:31:59;102640.78;;;13.01;100.00
49216;BME280;45943;53.148;8.204;2023-02-15T11:34:36;102644.88;;;12.78;100.00
49216;BME280;45943;53.148;8.204;2023-02-15T11:37:10;102639.91;;;13.00;100.00
49216;BME280;45943;53.148;8.204;2023-02-15T11:39:40;102627.47;;;12.83;100.00
49216;BME280;45943;53.148;8.204;2023-02-15T11:42:11;102639.19;;;12.68;100.00
49216;BME280;45943;53.148;8.204;2023-02-15T11:47:42;102623.34;;;13.06;100.00
49216;BME280;45943;53.148;8.204;2023-02-15T11:50:14;102617.59;;;13.12;100.00
49216;BME280;45943;53.148;8.204;2023-02-15T11:52:43;102620.97;;;13.30;100.00
49216;BME280;45943;53.148;8.204;2023-02-15T11:55:14;102621.38;;;13.24;100.00
49216;BME280;45943;53.148;8.204;2023-02-15T11:57:48;102613.44;;;13.49;100.00
49216;BME280;45943;53.148;8.204;2023-02-15T12:00:24;102615.47;;;13.46;100.00
49216;BME280;45943;53.148;8.204;2023-02-15T12:02:56;102608.88;;;13.64;100.00
49216;BME280;45943;53.148;8.204;2023-02-15T12:05:24;102604.38;;;13.92;100.00
49216;BME280;45943;53.148;8.204;2023-02-15T12:08:00;102601.44;;;14.22;100.00
49216;BME280;45943;53.148;8.204;2023-02-15T12:10:30;102590.88;;;14.31;100.00
49216;BME280;45943;53.148;8.204;2023-02-15T12:13:16;102597.38;;;14.29;100.00
49216;BME280;45943;53.148;8.204;2023-02-15T12:15:45;102600.56;;;14.21;100.00
49216;BME280;45943;53.148;8.204;2023-02-15T12:21:11;102582.44;;;14.23;100.00
49216;BME280;45943;53.148;8.204;2023-02-15T12:23:50;102582.66;;;14.20;100.00
49216;BME280;45943;53.148;8.204;2023-02-15T12:26:24;102567.28;;;14.48;100.00
49216;BME280;45943;53.148;8.204;2023-02-15T12:28:52;102560.91;;;14.61;100.00
49216;BME280;45943;53.148;8.204;2023-02-15T12:34:22;102556.75;;;14.30;100.00
49216;BME280;45943;53.148;8.204;2023-02-15T12:36:53;102555.66;;;14.20;100.00
49216;BME280;45943;53.148;8.204;2023-02-15T12:39:27;102549.75;;;14.28;100.00
49216;BME280;45943;53.148;8.204;2023-02-15T12:44:22;102557.19;;;15.26;100.00
49216;BME280;45943;53.148;8.204;2023-02-15T12:47:00;102556.63;;;15.70;100.00
49216;BME280;45943;53.148;8.204;2023-02-15T12:49:31;102547.03;;;16.01;100.00
49216;BME280;45943;53.148;8.204;2023-02-15T12:52:03;102547.16;;;16.35;94.35
49216;BME280;45943;53.148;8.204;2023-02-15T12:54:48;102542.34;;;16.39;87.97
49216;BME280;45943;53.148;8.204;2023-02-15T12:57:36;102536.81;;;16.40;87.84
49216;BME280;45943;53.148;8.204;2023-02-15T13:00:03;102540.38;;;16.41;87.77
49216;BME280;45943;53.148;8.204;2023-02-15T13:02:43;102541.88;;;16.45;87.02
49216;BME280;45943;53.148;8.204;2023-02-15T13:07:53;102533.31;;;16.16;83.43
49216;BME280;45943;53.148;8.204;2023-02-15T13:10:23;102518.78;;;15.82;86.00
49216;BME280;45943;53.148;8.204;2023-02-15T13:12:56;102537.00;;;15.43;90.43
49216;BME280;45943;53.148;8.204;2023-02-15T13:15:24;102532.25;;;15.46;92.20
49216;BME280;45943;53.148;8.204;2023-02-15T13:17:55;102524.06;;;15.59;91.45
49216;BME280;45943;53.148;8.204;2023-02-15T13:20:22;102526.84;;;15.70;91.07
49216;BME280;45943;53.148;8.204;2023-02-15T13:22:50;102529.16;;;15.88;89.33
49216;BME280;45943;53.148;8.204;2023-02-15T13:25:25;102534.78;;;15.61;90.67
49216;BME280;45943;53.148;8.204;2023-02-15T13:27:56;102527.88;;;15.57;94.03
49216;BME280;45943;53.148;8.204;2023-02-15T13:30:28;102517.53;;;15.74;91.04
49216;BME280;45943;53.148;8.204;2023-02-15T13:33:02;102520.88;;;15.41;96.84
49216;BME280;45943;53.148;8.204;2023-02-15T13:35:38;102514.59;;;15.54;99.09
49216;BME280;45943;53.148;8.204;2023-02-15T13:40:49;102500.81;;;16.04;86.01
49216;BME280;45943;53.148;8.204;2023-02-15T13:43:23;102497.31;;;16.02;87.87
49216;BME280;45943;53.148;8.204;2023-02-15T13:46:14;102488.41;;;16.24;88.35
49216;BME280;45943;53.148;8.204;2023-02-15T13:51:56;102492.88;;;16.59;80.69
49216;BME280;45943;53.148;8.204;2023-02-15T13:57:43;102480.19;;;16.26;80.82
49216;BME280;45943;53.148;8.204;2023-02-15T14:00:35;102485.28;;;15.71;87.17
49216;BME280;45943;53.148;8.204;2023-02-15T14:03:18;102484.34;;;15.60;92.77
49216;BME280;45943;53.148;8.204;2023-02-15T14:08:56;102482.00;;;15.79;89.93
49216;BME280;45943;53.148;8.204;2023-02-15T14:17:04;102470.75;;;15.61;92.89
49216;BME280;45943;53.148;8.204;2023-02-15T14:19:43;102480.44;;;15.16;99.53
49216;BME280;45943;53.148;8.204;2023-02-15T14:22:25;102470.41;;;15.05;100.00
49216;BME280;45943;53.148;8.204;2023-02-15T14:25:11;102469.50;;;14.81;100.00
49216;BME280;45943;53.148;8.204;2023-02-15T14:28:28;102461.53;;;14.41;100.00
49216;BME280;45943;53.148;8.204;2023-02-15T14:30:49;102460.34;;;14.58;100.00
49216;BME280;45943;53.148;8.204;2023-02-15T14:36:04;102458.53;;;14.46;100.00
49216;BME280;45943;53.148;8.204;2023-02-15T14:41:08;102443.28;;;14.06;100.00
49216;BME280;45943;53.148;8.204;2023-02-15T14:44:05;102440.25;;;14.11;100.00
49216;BME280;45943;53.148;8.204;2023-02-15T14:49:15;102436.63;;;13.60;100.00
49216;BME280;45943;53.148;8.204;2023-02-15T14:56:41;102440.53;;;13.29;100.00
49216;BME280;45943;53.148;8.204;2023-02-15T14:59:17;102429.16;;;13.24;100.00
49216;BME280;45943;53.148;8.204;2023-02-15T15:02:19;102425.22;;;13.15;100.00
49216;BME280;45943;53.148;8.204;2023-02-15T15:04:55;102429.63;;;13.16;100.00
49216;BME280;45943;53.148;8.204;2023-02-15T15:07:41;102431.41;;;13.03;100.00
49216;BME280;45943;53.148;8.204;2023-02-15T15:12:48;102423.50;;;13.14;100.00
49216;BME280;45943;53.148;8.204;2023-02-15T15:17:58;102418.91;;;13.02;100.00